Time;durP1;ratioP1;P1;durP2;ratioP2;P2;SDS_P1;SDS_P2;PMS_P1;PMS_P2;Temp;Humidity;BMP_temperature;BMP_pressure;BME280_temperature;BME280_humidity;BME280_pressure;Samples;Min_cycle;Max_cycle;Signal;HPM_P1;HPM_P2
2023/01/20 00:00:22;;;;;;;1.30;1.20;;;;;;;-4.08;98.46;95494.31;5047622;28;20199;-78
2023/01/20 00:02:49;;;;;;;1.37;1.20;;;;;;;-4.04;98.62;95492.19;5047233;28;20216;-78
2023/01/20 00:05:16;;;;;;;1.50;0.97;;;;;;;-4.11;98.48;95493.81;5046706;28;20206;-78
2023/01/20 00:07:43;;;;;;;1.40;1.10;;;;;;;-4.21;99.29;95496.59;5041648;28;20282;-78
2023/01/20 00:10:11;;;;;;;1.93;1.20;;;;;;;-4.24;99.31;95499.53;5042838;28;20230;-78
2023/01/20 00:12:39;;;;;;;3.27;1.20;;;;;;;-4.20;99.90;95503.53;5047923;28;20204;-78
2023/01/20 00:15:08;;;;;;;1.50;1.00;;;;;;;-4.19;99.32;95505.19;5048628;28;20199;-78
2023/01/20 00:17:35;;;;;;;1.30;1.10;;;;;;;-4.14;98.93;95513.41;5050829;28;20203;-78
2023/01/20 00:20:02;;;;;;;2.43;1.00;;;;;;;-4.14;98.65;95518.69;5048100;28;20196;-78
2023/01/20 00:22:29;;;;;;;1.10;1.00;;;;;;;-4.16;98.80;95523.28;5039634;28;20294;-78
2023/01/20 00:24:56;;;;;;;1.57;1.07;;;;;;;-4.14;99.79;95517.88;5047035;28;20230;-78
2023/01/20 00:27:24;;;;;;;1.10;1.00;;;;;;;-4.13;99.94;95522.97;5044510;28;20209;-79
2023/01/20 00:29:52;;;;;;;1.40;1.00;;;;;;;-4.21;97.57;95526.41;5045274;28;20210;-79
2023/01/20 00:32:20;;;;;;;2.17;1.00;;;;;;;-4.20;98.49;95527.25;5049941;28;20202;-79
2023/01/20 00:34:47;;;;;;;3.00;1.17;;;;;;;-4.20;98.28;95532.53;5043587;28;20469;-79
2023/01/20 00:37:13;;;;;;;1.10;0.90;;;;;;;-4.21;97.46;95530.88;5047543;28;20199;-78
2023/01/20 00:39:40;;;;;;;0.87;0.80;;;;;;;-4.22;98.13;95529.22;5049093;28;20217;-78
2023/01/20 00:42:07;;;;;;;1.30;1.00;;;;;;;-4.26;97.63;95531.34;5045637;28;20206;-78
2023/01/20 00:44:34;;;;;;;1.67;0.93;;;;;;;-4.18;97.71;95535.81;5039609;28;20219;-79
2023/01/20 00:47:03;;;;;;;1.20;1.00;;;;;;;-4.17;96.77;95534.03;5042209;28;20575;-79
2023/01/20 00:49:29;;;;;;;1.97;1.20;;;;;;;-4.21;97.91;95541.41;5045840;28;20205;-79
2023/01/20 00:51:57;;;;;;;1.43;1.17;;;;;;;-4.27;98.09;95540.25;5049606;28;20207;-79
2023/01/20 00:54:23;;;;;;;2.20;1.00;;;;;;;-4.35;99.02;95540.22;5046077;28;20302;-79
2023/01/20 00:56:50;;;;;;;1.27;0.93;;;;;;;-4.38;99.54;95547.59;5048398;28;20213;-79
2023/01/20 00:59:17;;;;;;;0.93;0.90;;;;;;;-4.45;100.00;95544.78;5047710;28;20224;-79
2023/01/20 01:01:45;;;;;;;1.63;1.07;;;;;;;-4.45;100.00;95544.78;5045931;28;20305;-79
2023/01/20 01:04:13;;;;;;;2.57;1.27;;;;;;;-4.57;100.00;95549.47;5050289;28;20217;-79
2023/01/20 01:06:40;;;;;;;1.87;1.30;;;;;;;-141.59;100.00;61776.25;5048333;28;20199;-78
2023/01/20 01:09:07;;;;;;;1.00;0.90;;;;;;;-141.59;100.00;61776.25;5048940;28;20210;-78
2023/01/20 01:11:34;;;;;;;2.27;1.17;;;;;;;-141.59;100.00;61776.25;5046296;28;20313;-78
2023/01/20 01:14:01;;;;;;;1.20;1.00;;;;;;;-4.62;100.00;95548.31;5040180;28;20206;-79
2023/01/20 01:16:31;;;;;;;1.27;1.07;;;;;;;-4.55;100.00;95556.41;5044895;28;20198;-78
2023/01/20 01:18:58;;;;;;;1.73;1.10;;;;;;;-4.54;100.00;95560.69;5047609;28;20225;-78
2023/01/20 01:21:27;;;;;;;0.90;0.90;;;;;;;-4.61;100.00;95545.53;5039909;28;20199;-78
2023/01/20 01:23:54;;;;;;;1.23;1.13;;;;;;;-4.58;100.00;95553.09;5048496;28;20226;-78
2023/01/20 01:26:21;;;;;;;1.10;1.00;;;;;;;-4.46;99.69;95566.00;5043289;28;20234;-78
2023/01/20 01:28:49;;;;;;;1.60;1.10;;;;;;;-4.42;98.93;95562.09;5047587;28;20267;-78
2023/01/20 01:31:20;;;;;;;0.97;0.93;;;;;;;-4.40;99.78;95552.19;5046037;28;20217;-78
2023/01/20 01:33:48;;;;;;;1.67;1.10;;;;;;;-4.28;98.03;95577.28;5045658;28;20210;-78
2023/01/20 01:36:17;;;;;;;1.33;1.07;;;;;;;-4.27;97.12;95579.78;5040750;28;20195;-78
2023/01/20 01:38:45;;;;;;;1.27;1.03;;;;;;;-4.17;95.03;95590.19;5043750;28;20207;-79
2023/01/20 01:41:14;;;;;;;0.90;0.80;;;;;;;-4.16;95.77;95596.28;5047472;28;20207;-79
2023/01/20 01:44:05;;;;;;;1.00;0.90;;;;;;;-4.15;95.44;95592.66;5043987;28;20218;-79
2023/01/20 01:46:33;;;;;;;0.93;0.90;;;;;;;-4.14;94.00;95592.50;5032315;28;20207;-79
2023/01/20 01:49:02;;;;;;;0.93;0.87;;;;;;;-4.21;93.20;95587.03;5034544;28;20198;-78
2023/01/20 01:51:33;;;;;;;0.90;0.90;;;;;;;-4.21;94.08;95588.84;5041994;28;20207;-78
2023/01/20 01:54:08;;;;;;;0.73;0.67;;;;;;;-4.21;94.62;95602.84;5042556;28;20196;-78
2023/01/20 01:56:37;;;;;;;0.63;0.63;;;;;;;-4.31;94.44;95593.41;5045059;28;20206;-78
2023/01/20 01:59:05;;;;;;;0.70;0.70;;;;;;;-4.30;95.21;95606.44;5042922;28;20203;-78
2023/01/20 02:01:38;;;;;;;0.60;0.60;;;;;;;-4.33;95.40;95596.19;5036755;28;20241;-78
2023/01/20 02:04:10;;;;;;;1.00;0.80;;;;;;;-4.34;96.06;95605.09;5046777;28;20242;-78
2023/01/20 02:06:40;;;;;;;1.13;1.03;;;;;;;-4.38;96.27;95597.66;5043622;28;20202;-78
2023/01/20 02:09:08;;;;;;;0.60;0.60;;;;;;;-4.32;96.85;95605.75;5047563;28;20218;-78
2023/01/20 02:11:39;;;;;;;0.83;0.83;;;;;;;-4.38;96.58;95606.41;5039357;28;20227;-78
2023/01/20 02:14:06;;;;;;;0.60;0.60;;;;;;;-4.38;96.82;95606.41;5042910;28;20203;-78
2023/01/20 02:16:43;;;;;;;0.80;0.80;;;;;;;-4.39;97.38;95596.84;5044160;28;20191;-78
2023/01/20 02:19:36;;;;;;;0.80;0.70;;;;;;;-4.32;97.44;95618.94;5044482;28;20206;-78
2023/01/20 02:22:17;;;;;;;0.67;0.67;;;;;;;-4.42;97.90;95617.41;5026879;28;20205;-78
2023/01/20 02:25:04;;;;;;;0.80;0.70;;;;;;;-4.55;97.83;95628.38;5045636;28;20276;-78
2023/01/20 02:27:52;;;;;;;1.00;0.87;;;;;;;-4.58;98.29;95634.75;5035233;28;20213;-78
2023/01/20 02:30:39;;;;;;;1.27;0.90;;;;;;;-4.55;97.91;95627.53;5043496;28;20207;-78
2023/01/20 02:33:13;;;;;;;0.87;0.87;;;;;;;-4.53;97.90;95639.56;5052117;28;20205;-78
2023/01/20 02:35:45;;;;;;;2.30;0.80;;;;;;;-4.48;98.23;95639.09;5058495;28;20206;-78
2023/01/20 02:38:21;;;;;;;1.00;0.90;;;;;;;-4.47;98.32;95635.50;5047578;28;20256;-78
2023/01/20 02:40:56;;;;;;;1.20;0.97;;;;;;;-4.44;99.09;95643.09;5044258;28;20213;-79
2023/01/20 02:43:31;;;;;;;1.70;0.97;;;;;;;-4.47;99.44;95640.75;5048216;28;20299;-78
2023/01/20 02:46:07;;;;;;;1.07;0.70;;;;;;;-4.44;98.26;95646.56;5046229;28;20225;-78
2023/01/20 02:48:43;;;;;;;6.53;1.00;;;;;;;-4.48;98.29;95650.47;5042887;28;20201;-78
2023/01/20 02:51:14;;;;;;;0.80;0.80;;;;;;;-4.53;98.18;95651.94;5047545;28;20214;-78
2023/01/20 02:53:52;;;;;;;0.87;0.80;;;;;;;-4.61;98.44;95655.34;5050125;28;20371;-78
2023/01/20 02:56:23;;;;;;;1.03;0.80;;;;;;;-4.61;98.88;95653.53;5042643;28;20208;-79
2023/01/20 02:58:53;;;;;;;1.07;0.90;;;;;;;-4.56;98.33;95655.69;5046326;28;20272;-78
2023/01/20 03:01:25;;;;;;;1.60;1.00;;;;;;;-4.51;98.48;95657.88;5047906;28;20205;-78
2023/01/20 03:03:57;;;;;;;0.97;0.90;;;;;;;-4.52;98.13;95654.41;5040204;28;20228;-78
2023/01/20 03:06:28;;;;;;;1.13;1.03;;;;;;;-4.57;98.87;95652.22;5037686;28;20213;-79
2023/01/20 03:09:00;;;;;;;0.93;0.87;;;;;;;-4.55;99.13;95659.97;5053248;28;20213;-78
2023/01/20 03:11:29;;;;;;;1.30;0.80;;;;;;;-4.49;99.38;95655.88;5041549;28;20231;-78
2023/01/20 03:14:03;;;;;;;0.73;0.73;;;;;;;-4.52;99.29;95664.13;5039173;28;20281;-79
2023/01/20 03:16:31;;;;;;;1.67;1.03;;;;;;;-4.57;98.87;95668.03;5039128;28;20288;-78
2023/01/20 03:18:59;;;;;;;1.20;0.90;;;;;;;-4.62;98.62;95680.00;5045077;28;20255;-79
2023/01/20 03:21:27;;;;;;;1.17;0.90;;;;;;;-4.71;99.07;95678.31;5032453;28;20237;-79
2023/01/20 03:23:57;;;;;;;1.53;0.90;;;;;;;-4.85;99.25;95679.69;5038812;28;20221;-78
2023/01/20 03:26:24;;;;;;;2.10;1.37;;;;;;;-4.98;100.00;95685.31;5044724;28;20437;-78
2023/01/20 03:28:53;;;;;;;1.83;1.57;;;;;;;-5.02;100.00;95701.59;5043552;28;20202;-79
2023/01/20 03:31:22;;;;;;;1.87;1.00;;;;;;;-5.02;100.00;95696.31;5036183;28;20209;-79
2023/01/20 03:33:53;;;;;;;0.77;0.77;;;;;;;-4.98;100.00;95695.84;5042053;28;20214;-78
2023/01/20 03:36:24;;;;;;;1.63;1.10;;;;;;;-4.88;100.00;95700.22;5044210;28;20273;-79
2023/01/20 03:38:52;;;;;;;0.80;0.80;;;;;;;-4.84;100.00;95697.09;5042424;28;20199;-79
2023/01/20 03:41:28;;;;;;;0.97;0.73;;;;;;;-4.84;100.00;95691.84;5035392;28;20206;-79
2023/01/20 03:43:59;;;;;;;0.97;0.90;;;;;;;-4.83;99.53;95700.56;5047056;28;20202;-79
2023/01/20 03:46:33;;;;;;;1.10;1.00;;;;;;;-4.83;99.50;95703.22;5041355;28;20210;-79
2023/01/20 03:49:08;;;;;;;0.83;0.70;;;;;;;-4.89;98.21;95703.81;5045690;28;20303;-79
2023/01/20 03:51:46;;;;;;;1.80;1.00;;;;;;;-5.13;98.95;95680.75;5042442;28;20217;-78
2023/01/20 03:54:22;;;;;;;1.23;1.00;;;;;;;-5.27;99.58;95692.59;5045197;28;20203;-79
2023/01/20 03:56:55;;;;;;;1.10;0.93;;;;;;;-5.20;100.00;95700.75;5035335;28;20206;-78
2023/01/20 03:59:24;;;;;;;1.23;1.00;;;;;;;-5.30;100.00;95699.97;5044169;28;20245;-78
2023/01/20 04:01:52;;;;;;;1.00;0.90;;;;;;;-5.32;100.00;95697.50;5059405;28;20191;-78
2023/01/20 04:04:20;;;;;;;2.70;0.90;;;;;;;-5.30;100.00;95710.50;5043378;28;20273;-78
2023/01/20 04:06:51;;;;;;;1.33;1.13;;;;;;;-5.35;100.00;95709.13;5039585;28;20199;-78
2023/01/20 04:09:24;;;;;;;1.60;1.00;;;;;;;-5.34;100.00;95716.06;5036485;28;20219;-78
2023/01/20 04:11:51;;;;;;;1.10;0.80;;;;;;;-5.38;100.00;95722.59;5047356;28;20484;-78
2023/01/20 04:14:21;;;;;;;1.10;1.00;;;;;;;-5.54;100.00;95704.00;5042470;28;20491;-78
2023/01/20 04:16:54;;;;;;;1.10;1.00;;;;;;;-5.41;100.00;95725.53;5045141;28;20464;-78
2023/01/20 04:19:21;;;;;;;1.63;1.13;;;;;;;-5.39;100.00;95713.06;5050039;28;20503;-78
2023/01/20 04:21:59;;;;;;;7.60;1.20;;;;;;;-5.29;100.00;95728.78;5043165;28;20198;-78
2023/01/20 04:24:33;;;;;;;1.10;1.00;;;;;;;-5.23;100.00;95727.34;5035734;28;20242;-78
2023/01/20 04:27:00;;;;;;;1.40;0.77;;;;;;;-5.23;100.00;95725.56;5041850;28;20206;-78
2023/01/20 04:29:27;;;;;;;0.73;0.67;;;;;;;-5.25;100.00;95727.50;5048405;28;20202;-78
2023/01/20 04:31:59;;;;;;;0.60;0.60;;;;;;;-5.35;100.00;95714.41;5046824;28;20234;-78
2023/01/20 04:34:26;;;;;;;0.70;0.70;;;;;;;-5.31;100.00;95716.75;5046245;28;20207;-78
2023/01/20 04:36:54;;;;;;;0.80;0.80;;;;;;;-5.32;100.00;95729.06;5047546;28;20233;-79
2023/01/20 04:39:21;;;;;;;0.70;0.70;;;;;;;-5.27;100.00;95741.78;5037419;28;20218;-78
2023/01/20 04:41:49;;;;;;;1.07;0.77;;;;;;;-5.27;100.00;95745.22;5029860;28;20252;-78
2023/01/20 04:44:16;;;;;;;1.53;0.80;;;;;;;-5.26;100.00;95753.94;5034882;28;20229;-78
2023/01/20 04:46:44;;;;;;;1.27;0.80;;;;;;;-5.27;100.00;95749.69;5048197;28;20190;-78
2023/01/20 04:49:11;;;;;;;0.93;0.83;;;;;;;-5.21;100.00;95757.00;5046905;28;20237;-78
2023/01/20 04:51:39;;;;;;;1.03;0.80;;;;;;;-5.27;100.00;95754.97;5038594;28;20199;-79
2023/01/20 04:54:07;;;;;;;0.70;0.70;;;;;;;-5.27;100.00;95762.84;5044177;28;20229;-78
2023/01/20 04:56:34;;;;;;;0.93;0.90;;;;;;;-5.40;100.00;95764.00;5043117;28;20206;-78
2023/01/20 04:59:01;;;;;;;0.83;0.80;;;;;;;-5.39;100.00;95773.56;5042560;28;20210;-78
2023/01/20 05:01:28;;;;;;;1.23;0.83;;;;;;;-5.31;100.00;95782.53;5034706;28;20209;-78
2023/01/20 05:03:56;;;;;;;1.43;0.77;;;;;;;-5.31;100.00;95785.16;5045557;28;20210;-78
2023/01/20 05:06:23;;;;;;;3.67;0.80;;;;;;;-5.28;100.00;95793.59;5044727;28;20214;-78
2023/01/20 05:08:50;;;;;;;0.70;0.70;;;;;;;-5.24;99.92;95796.75;5045018;28;20220;-78
2023/01/20 05:11:19;;;;;;;3.57;1.40;;;;;;;-5.20;99.68;95801.59;5044615;28;20221;-78
2023/01/20 05:13:46;;;;;;;1.30;1.00;;;;;;;-5.19;100.00;95807.69;5047617;28;20281;-78
2023/01/20 05:16:13;;;;;;;5.43;1.83;;;;;;;-5.14;100.00;95814.16;5044132;28;20210;-78
2023/01/20 05:18:40;;;;;;;2.90;1.60;;;;;;;-5.12;100.00;95819.28;5049946;28;20201;-78
2023/01/20 05:21:07;;;;;;;1.47;1.10;;;;;;;-5.22;100.00;95814.06;5047929;28;20209;-78
2023/01/20 05:23:34;;;;;;;2.47;1.17;;;;;;;-5.24;100.00;95823.06;5048289;28;20297;-78
2023/01/20 05:26:01;;;;;;;1.33;0.80;;;;;;;-5.25;100.00;95824.03;5050274;28;20238;-78
2023/01/20 05:28:30;;;;;;;2.23;0.97;;;;;;;-5.30;100.00;95821.84;5048240;28;20198;-78
2023/01/20 05:30:57;;;;;;;0.80;0.80;;;;;;;-5.29;100.00;95827.94;5044149;28;20202;-79
2023/01/20 05:33:24;;;;;;;2.00;1.20;;;;;;;-5.32;100.00;95833.50;5045239;28;20195;-79
2023/01/20 05:35:51;;;;;;;4.47;3.63;;;;;;;-5.42;100.00;95818.56;5043762;28;20204;-79
2023/01/20 05:38:18;;;;;;;8.47;5.43;;;;;;;-5.35;100.00;95837.22;5036308;28;20218;-78
2023/01/20 05:40:45;;;;;;;3.03;1.93;;;;;;;-5.30;99.78;95832.38;5043270;28;20194;-78
2023/01/20 05:43:12;;;;;;;4.43;1.23;;;;;;;-5.32;99.29;95833.50;5045135;28;20232;-79
2023/01/20 05:45:42;;;;;;;1.23;1.03;;;;;;;-5.22;99.36;95852.69;5046238;28;20211;-78
2023/01/20 05:48:08;;;;;;;1.23;1.00;;;;;;;-5.27;99.50;95842.59;5046430;28;20213;-78
2023/01/20 05:50:35;;;;;;;2.03;1.30;;;;;;;-5.28;99.07;95840.13;5042167;28;20206;-78
2023/01/20 05:53:02;;;;;;;1.10;1.00;;;;;;;-5.28;98.49;95858.56;5046798;28;20221;-79
2023/01/20 05:55:29;;;;;;;2.40;1.20;;;;;;;-5.28;99.32;95862.00;5041980;28;20203;-79
2023/01/20 05:57:56;;;;;;;1.83;1.10;;;;;;;-5.39;99.52;95849.88;5046215;28;20275;-78
2023/01/20 06:00:23;;;;;;;4.03;1.40;;;;;;;-5.28;99.39;95871.72;5044259;28;20205;-79
2023/01/20 06:02:52;;;;;;;1.60;1.00;;;;;;;-5.24;99.70;95878.31;5046187;28;20278;-78
2023/01/20 06:05:19;;;;;;;1.40;1.10;;;;;;;-5.25;99.41;95879.28;5045167;28;20226;-78
2023/01/20 06:07:48;;;;;;;2.53;1.50;;;;;;;-5.34;99.07;95868.66;5048190;28;20217;-78
2023/01/20 06:10:15;;;;;;;1.80;1.50;;;;;;;-5.23;99.24;95882.63;5047499;28;20322;-78
2023/01/20 06:12:42;;;;;;;3.37;2.57;;;;;;;-5.19;98.21;95886.63;5043353;28;20288;-78
2023/01/20 06:15:10;;;;;;;2.47;2.20;;;;;;;-5.29;97.63;95870.03;5041122;28;20199;-78
2023/01/20 06:17:37;;;;;;;3.63;1.83;;;;;;;-5.31;96.70;95875.44;5036273;28;20199;-78
2023/01/20 06:20:07;;;;;;;5.07;2.13;;;;;;;-5.29;97.63;95891.94;5048660;28;20220;-79
2023/01/20 06:22:34;;;;;;;1.83;1.20;;;;;;;-5.31;98.07;95893.03;5045164;28;20206;-78
2023/01/20 06:25:01;;;;;;;1.63;1.33;;;;;;;-5.26;98.27;95896.06;5057412;28;20241;-78
2023/01/20 06:27:28;;;;;;;2.00;1.50;;;;;;;-5.25;98.51;95895.09;5043140;28;20214;-78
2023/01/20 06:29:55;;;;;;;5.50;1.90;;;;;;;-5.24;98.96;95902.84;5048444;28;20212;-78
2023/01/20 06:32:22;;;;;;;1.97;1.33;;;;;;;-5.25;98.87;95902.97;5041701;28;20198;-79
2023/01/20 06:34:51;;;;;;;2.47;1.30;;;;;;;-5.26;99.05;95907.41;5045467;28;20221;-78
2023/01/20 06:37:20;;;;;;;2.63;1.60;;;;;;;-5.30;99.66;95915.75;5044022;28;20201;-78
2023/01/20 06:39:47;;;;;;;3.93;2.30;;;;;;;-5.29;100.00;95915.63;5036718;28;20201;-78
2023/01/20 06:42:14;;;;;;;3.63;1.77;;;;;;;-5.37;100.00;95926.84;5058672;28;20206;-79
2023/01/20 06:44:41;;;;;;;2.50;2.03;;;;;;;-5.44;100.00;95925.75;5043838;28;20198;-78
2023/01/20 06:47:09;;;;;;;4.57;2.40;;;;;;;-5.43;100.00;95929.22;5048093;28;20245;-78
2023/01/20 06:49:36;;;;;;;4.13;1.70;;;;;;;-5.39;100.00;95949.00;5039333;28;20210;-78
2023/01/20 06:52:07;;;;;;;1.90;1.23;;;;;;;-5.46;99.84;95948.75;5043817;28;20210;-78
2023/01/20 06:54:35;;;;;;;2.47;1.57;;;;;;;-5.37;100.00;95952.34;5032326;28;20206;-78
2023/01/20 06:57:02;;;;;;;3.30;1.43;;;;;;;-5.44;99.57;95953.84;5035968;28;20210;-79
2023/01/20 06:59:29;;;;;;;2.23;1.50;;;;;;;-5.51;99.59;95960.66;5035798;28;20218;-79
2023/01/20 07:01:56;;;;;;;2.60;1.50;;;;;;;-5.49;100.00;95953.47;5034188;28;20199;-79
2023/01/20 07:04:23;;;;;;;6.07;2.43;;;;;;;-5.45;100.00;95968.00;5040065;28;20206;-79
2023/01/20 07:06:50;;;;;;;2.87;1.77;;;;;;;-5.43;100.00;95973.94;5036515;28;20225;-79
2023/01/20 07:09:17;;;;;;;1.60;1.30;;;;;;;-5.36;100.00;95982.94;5038643;28;20210;-79
2023/01/20 07:11:46;;;;;;;2.77;1.40;;;;;;;-5.35;99.73;95989.84;5037405;28;20218;-79
2023/01/20 07:14:13;;;;;;;2.23;1.20;;;;;;;-5.37;99.38;95995.28;5041292;28;20293;-79
2023/01/20 07:16:40;;;;;;;3.50;1.33;;;;;;;-5.40;100.00;95990.28;5043542;28;20209;-79
2023/01/20 07:19:07;;;;;;;3.27;2.00;;;;;;;-5.27;99.16;96012.84;5037496;28;20202;-79
2023/01/20 07:21:34;;;;;;;3.83;1.90;;;;;;;-5.28;98.83;96019.06;5031986;28;20210;-79
2023/01/20 07:24:02;;;;;;;2.63;1.83;;;;;;;-5.34;99.68;96016.00;5041524;28;20198;-79
2023/01/20 07:26:29;;;;;;;2.57;1.60;;;;;;;-5.32;100.00;96020.31;5042553;28;20214;-79
2023/01/20 07:28:59;;;;;;;3.87;1.90;;;;;;;-5.27;100.00;96031.25;5033927;28;20554;-79
2023/01/20 07:31:30;;;;;;;1.83;1.50;;;;;;;-5.23;100.00;96033.47;5045726;28;20336;-79
2023/01/20 07:33:58;;;;;;;2.93;1.40;;;;;;;-5.26;99.28;96043.41;5034688;28;20202;-79
2023/01/20 07:36:26;;;;;;;2.43;1.47;;;;;;;-5.22;100.00;96045.66;5045878;28;20203;-79
2023/01/20 07:38:54;;;;;;;6.20;1.13;;;;;;;-5.32;100.00;96051.88;5040370;28;20234;-79
2023/01/20 07:41:21;;;;;;;2.83;1.20;;;;;;;-5.38;100.00;96056.75;5046834;28;20205;-79
2023/01/20 07:43:50;;;;;;;1.80;1.47;;;;;;;-5.31;100.00;96056.19;5036719;28;20209;-79
2023/01/20 07:46:20;;;;;;;5.33;2.70;;;;;;;-5.24;100.00;96067.81;5040860;28;20214;-79
2023/01/20 07:48:47;;;;;;;3.20;2.03;;;;;;;-5.22;100.00;96069.34;5044893;28;20210;-79
2023/01/20 07:51:16;;;;;;;4.40;2.00;;;;;;;-5.15;100.00;96075.69;5047198;28;20205;-79
2023/01/20 07:53:45;;;;;;;4.43;2.17;;;;;;;-5.07;100.00;96081.09;5036162;28;20202;-79
2023/01/20 07:56:14;;;;;;;8.90;2.77;;;;;;;-5.04;99.99;96082.63;5034921;28;20230;-79
2023/01/20 07:58:41;;;;;;;7.90;2.60;;;;;;;-4.97;100.00;96086.34;5043417;28;20213;-79
2023/01/20 08:01:10;;;;;;;3.03;2.07;;;;;;;-4.97;99.77;96092.44;5045019;28;20217;-79
2023/01/20 08:03:38;;;;;;;5.23;3.00;;;;;;;-4.93;99.48;96092.16;5037177;28;20202;-79
2023/01/20 08:06:09;;;;;;;7.07;3.83;;;;;;;-4.98;99.50;96092.56;5047626;28;20223;-79
2023/01/20 08:08:37;;;;;;;21.43;9.13;;;;;;;-4.93;100.00;96105.34;5045362;28;20195;-79
2023/01/20 08:11:05;;;;;;;10.30;6.23;;;;;;;-4.93;100.00;96107.97;5051634;28;20222;-79
2023/01/20 08:13:33;;;;;;;14.93;6.93;;;;;;;-4.93;100.00;96107.97;5041567;28;20255;-79
2023/01/20 08:16:00;;;;;;;10.57;5.57;;;;;;;-4.89;100.00;96120.69;5044303;28;20199;-79
2023/01/20 08:18:28;;;;;;;8.87;4.43;;;;;;;-4.94;100.00;96115.03;5044723;28;20195;-77
2023/01/20 08:20:56;;;;;;;7.30;4.13;;;;;;;-4.86;100.00;96122.22;5034415;28;20191;-77
2023/01/20 08:23:23;;;;;;;9.13;4.53;;;;;;;-4.87;100.00;96107.38;5042300;28;20289;-79
2023/01/20 08:25:57;;;;;;;11.20;4.73;;;;;;;-4.84;100.00;96113.19;5045256;28;20238;-79
2023/01/20 08:28:24;;;;;;;7.53;4.40;;;;;;;-4.73;100.00;96126.19;5043239;28;20340;-79
2023/01/20 08:30:53;;;;;;;11.10;3.97;;;;;;;-4.67;100.00;96128.25;5042226;28;20229;-79
2023/01/20 08:33:20;;;;;;;11.07;4.73;;;;;;;-4.72;100.00;96129.66;5047442;28;20206;-79
2023/01/20 08:35:47;;;;;;;5.17;3.10;;;;;;;-4.79;97.94;96116.25;5050317;28;20251;-79
2023/01/20 08:38:16;;;;;;;5.53;3.43;;;;;;;-4.69;95.33;96130.22;5037171;28;20212;-79
2023/01/20 08:40:43;;;;;;;5.70;3.40;;;;;;;-4.69;94.80;96126.75;5041515;28;20214;-79
2023/01/20 08:43:14;;;;;;;5.80;3.10;;;;;;;-4.66;95.79;96115.91;5048681;28;20199;-79
2023/01/20 08:45:42;;;;;;;5.80;3.47;;;;;;;-4.45;95.13;96139.44;5042860;28;20202;-79
2023/01/20 08:48:09;;;;;;;5.57;3.33;;;;;;;-4.47;92.73;96130.84;5048482;28;20203;-79
2023/01/20 08:50:37;;;;;;;5.23;3.00;;;;;;;-4.41;91.93;96130.28;5045163;28;20198;-79
2023/01/20 08:53:04;;;;;;;6.47;3.60;;;;;;;-4.40;91.56;96126.66;5049353;28;20210;-79
2023/01/20 08:55:32;;;;;;;5.80;3.20;;;;;;;-4.28;91.16;96133.44;5053152;28;20207;-79
2023/01/20 08:58:01;;;;;;;6.00;3.40;;;;;;;-4.19;91.23;96143.13;5046877;28;20199;-79
2023/01/20 09:00:28;;;;;;;6.10;3.40;;;;;;;-4.10;90.24;96150.16;5048020;28;20202;-79
2023/01/20 09:02:55;;;;;;;6.37;3.80;;;;;;;-4.20;90.76;96134.38;5041547;28;20210;-79
2023/01/20 09:05:22;;;;;;;10.83;4.67;;;;;;;-4.04;91.33;96146.09;5046052;28;20256;-79
2023/01/20 09:07:49;;;;;;;7.00;4.17;;;;;;;-3.91;90.78;96157.97;5048002;28;20237;-79
2023/01/20 09:10:16;;;;;;;5.80;3.87;;;;;;;-3.81;90.62;96165.81;5050170;28;20222;-79
2023/01/20 09:12:44;;;;;;;7.30;3.87;;;;;;;-3.81;89.41;96152.63;5045399;28;20198;-79
2023/01/20 09:15:12;;;;;;;8.93;3.70;;;;;;;-3.66;87.76;96153.84;5035787;28;20196;-79
2023/01/20 09:17:39;;;;;;;4.97;2.57;;;;;;;-3.65;80.37;96146.72;5045141;28;20198;-79
2023/01/20 09:20:08;;;;;;;10.63;3.00;;;;;;;-3.59;83.02;96157.53;5063054;28;20281;-79
2023/01/20 09:22:35;;;;;;;9.07;3.17;;;;;;;-3.58;86.52;96156.56;5033789;28;20203;-79
2023/01/20 09:25:03;;;;;;;8.73;2.67;;;;;;;-3.60;86.65;96162.94;5043364;28;20261;-79
2023/01/20 09:27:30;;;;;;;7.57;2.80;;;;;;;-3.57;86.98;96150.28;5045489;28;20222;-79
2023/01/20 09:29:58;;;;;;;11.23;2.80;;;;;;;-3.43;86.26;96159.53;5044728;28;20237;-79
2023/01/20 09:32:25;;;;;;;9.17;2.33;;;;;;;-3.38;81.32;96173.09;5044766;28;20209;-79
2023/01/20 09:34:52;;;;;;;6.87;2.13;;;;;;;-3.21;77.62;96180.19;5042720;28;20210;-79
2023/01/20 09:46:14;;;;;;;7.67;2.10;;;;;;;-2.96;74.47;96177.78;5046496;28;20218;-79
2023/01/20 09:54:40;;;;;;;13.33;2.20;;;;;;;-2.79;73.00;96185.72;5038320;28;20203;-79
2023/01/20 09:57:10;;;;;;;4.20;2.10;;;;;;;-2.67;71.91;96194.25;5042357;28;20217;-79
2023/01/20 09:59:42;;;;;;;5.53;2.37;;;;;;;-2.57;71.18;96196.81;5046541;28;20202;-79
2023/01/20 10:02:18;;;;;;;5.53;1.53;;;;;;;-2.47;68.48;96190.44;5041881;28;20248;-79
2023/01/20 10:04:48;;;;;;;7.17;2.23;;;;;;;-2.41;68.01;96191.63;5037108;28;20210;-79
2023/01/20 10:07:22;;;;;;;10.47;2.40;;;;;;;-2.31;67.17;96189.75;5045174;28;20261;-79
2023/01/20 10:09:56;;;;;;;5.13;2.00;;;;;;;-2.28;66.61;96179.66;5041752;28;20405;-79
2023/01/20 10:12:30;;;;;;;2.90;1.57;;;;;;;-2.12;65.58;96172.81;5045111;28;20294;-79
2023/01/20 10:15:08;;;;;;;12.53;2.10;;;;;;;-1.94;64.62;96189.44;5032799;28;20211;-79
2023/01/20 10:17:42;;;;;;;4.33;1.50;;;;;;;-2.16;63.30;96184.69;5043564;28;20188;-78
2023/01/20 10:20:14;;;;;;;4.93;1.43;;;;;;;-2.24;62.20;96166.97;5032710;28;20247;-78
2023/01/20 10:22:45;;;;;;;2.00;1.20;;;;;;;-2.23;64.24;96170.44;5034273;28;20300;-78
2023/01/20 10:25:17;;;;;;;5.50;1.60;;;;;;;-2.06;64.03;96177.50;5038758;28;20235;-78
2023/01/20 10:27:52;;;;;;;5.77;2.00;;;;;;;-1.79;63.40;96185.25;5043650;28;20305;-78
2023/01/20 10:30:23;;;;;;;4.73;1.60;;;;;;;-1.82;60.98;96176.78;5040939;28;20202;-78
2023/01/20 10:32:58;;;;;;;6.07;1.60;;;;;;;-1.71;61.26;96192.41;5037151;28;20219;-78
2023/01/20 10:35:28;;;;;;;2.53;1.47;;;;;;;-1.68;60.68;96197.34;5036139;28;20199;-78
2023/01/20 10:37:57;;;;;;;2.63;1.20;;;;;;;-1.42;61.48;96169.00;5038577;28;20201;-78
2023/01/20 10:40:34;;;;;;;7.33;1.23;;;;;;;-1.09;59.93;96192.94;5039760;28;20196;-78
2023/01/20 10:43:11;;;;;;;11.83;1.50;;;;;;;-0.87;58.50;96179.91;5036920;28;20205;-78
2023/01/20 10:45:52;;;;;;;3.70;0.97;;;;;;;-0.68;55.30;96199.16;5044087;28;20224;-78
2023/01/20 10:48:39;;;;;;;5.03;0.90;;;;;;;-0.69;54.40;96192.19;5037678;28;20225;-78
2023/01/20 10:51:15;;;;;;;4.37;0.90;;;;;;;-0.50;53.79;96191.84;5042757;28;20301;-78
2023/01/20 10:53:56;;;;;;;0.83;0.83;;;;;;;-0.30;54.61;96187.88;5037229;28;20202;-78
2023/01/20 10:56:38;;;;;;;2.77;1.60;;;;;;;-0.02;54.58;96188.34;5046303;28;20216;-78
2023/01/20 10:59:12;;;;;;;8.43;2.20;;;;;;;0.16;55.12;96188.13;5040831;28;20234;-78
2023/01/20 11:01:40;;;;;;;2.67;1.40;;;;;;;0.30;56.24;96187.41;5035670;28;20210;-78
2023/01/20 11:04:17;;;;;;;3.87;1.40;;;;;;;0.36;56.30;96186.72;5036814;28;20269;-79
2023/01/20 11:06:45;;;;;;;1.63;1.30;;;;;;;0.23;57.17;96176.66;5036994;28;20293;-78
2023/01/20 11:09:20;;;;;;;2.13;1.30;;;;;;;0.37;57.53;96188.38;5043904;28;20205;-78
2023/01/20 11:11:48;;;;;;;2.83;1.20;;;;;;;0.49;56.47;96173.75;5039674;28;20309;-81
2023/01/20 11:14:15;;;;;;;2.87;1.10;;;;;;;0.65;54.75;96173.69;5033045;28;20204;-79
2023/01/20 11:16:45;;;;;;;3.20;1.20;;;;;;;1.17;55.08;96178.38;5044647;28;20206;-78
2023/01/20 11:19:14;;;;;;;1.47;1.17;;;;;;;1.56;53.35;96180.91;5040499;28;20222;-78
2023/01/20 11:21:41;;;;;;;1.97;1.43;;;;;;;1.97;52.15;96186.69;5033595;28;20210;-78
2023/01/20 11:24:34;;;;;;;2.60;1.57;;;;;;;2.04;51.45;96190.28;5045835;28;20395;-78
2023/01/20 11:27:13;;;;;;;1.90;1.30;;;;;;;2.22;49.93;96187.28;5039017;28;20229;-78
2023/01/20 11:29:43;;;;;;;6.43;1.70;;;;;;;2.44;50.24;96193.56;5043529;28;20208;-78
2023/01/20 11:32:32;;;;;;;5.17;1.60;;;;;;;2.20;49.89;96184.84;5045180;28;20202;-78
2023/01/20 11:35:01;;;;;;;2.70;1.47;;;;;;;2.37;50.58;96180.16;5043877;28;20380;-78
2023/01/20 11:37:37;;;;;;;1.57;1.20;;;;;;;2.32;48.77;96192.34;5046698;28;20203;-78
2023/01/20 11:40:19;;;;;;;3.17;1.47;;;;;;;2.51;48.11;96186.47;5048324;28;20260;-78
2023/01/20 11:42:47;;;;;;;2.73;1.50;;;;;;;2.48;48.18;96170.84;5044950;28;20225;-78
2023/01/20 11:45:27;;;;;;;7.17;6.47;;;;;;;2.46;46.93;96188.88;5033678;28;20207;-78
2023/01/20 11:48:04;;;;;;;1.87;1.40;;;;;;;2.60;47.22;96175.53;5041764;28;20218;-78
2023/01/20 11:50:49;;;;;;;4.53;1.40;;;;;;;2.86;48.53;96187.56;5036058;28;20213;-78
2023/01/20 11:53:22;;;;;;;5.87;1.60;;;;;;;2.92;48.45;96181.47;5041845;28;20272;-78
2023/01/20 11:55:51;;;;;;;3.07;1.30;;;;;;;2.89;46.90;96179.19;5034073;28;20214;-78
2023/01/20 11:58:20;;;;;;;4.60;1.70;;;;;;;2.77;46.93;96176.16;5045331;28;20226;-77